Time;durP1;ratioP1;P1;durP2;ratioP2;P2;SDS_P1;SDS_P2;PMS_P1;PMS_P2;Temp;Humidity;BMP_temperature;BMP_pressure;BME280_temperature;BME280_humidity;BME280_pressure;Samples;Min_cycle;Max_cycle;Signal;HPM_P1;HPM_P2
2021/08/30 00:03:04;;;;;;;12.97;5.93;;;14.10;99.90;;;;;;21017075;28;20368;-77
2021/08/30 00:13:04;;;;;;;9.13;5.50;;;14.00;99.90;;;;;;21017744;28;20029;-78
2021/08/30 00:23:05;;;;;;;10.63;5.70;;;14.00;99.90;;;;;;21017403;28;20111;-78
2021/08/30 00:33:06;;;;;;;11.10;5.70;;;14.00;99.90;;;;;;20998126;28;20032;-78
2021/08/30 00:43:08;;;;;;;12.27;6.23;;;14.00;99.90;;;;;;20981243;28;20041;-78
2021/08/30 00:53:09;;;;;;;9.43;6.28;;;14.00;99.90;;;;;;20999768;28;20128;-78
2021/08/30 01:03:10;;;;;;;9.10;5.50;;;13.90;99.90;;;;;;20989645;28;20052;-78
2021/08/30 01:13:23;;;;;;;14.67;6.00;;;14.00;99.90;;;;;;21001268;28;20025;-78
2021/08/30 01:23:27;;;;;;;16.08;7.10;;;14.00;99.90;;;;;;21000165;28;20051;-78
2021/08/30 01:33:28;;;;;;;10.25;6.30;;;14.10;99.90;;;;;;20999621;28;20029;-78
2021/08/30 01:43:29;;;;;;;9.97;5.60;;;14.00;99.90;;;;;;20998551;28;20036;-77
2021/08/30 01:53:30;;;;;;;13.97;6.03;;;14.00;99.90;;;;;;20998568;28;20020;-78
2021/08/30 02:03:31;;;;;;;13.15;6.20;;;14.00;99.90;;;;;;20997639;28;20036;-76
2021/08/30 02:13:33;;;;;;;9.00;6.00;;;13.90;99.90;;;;;;20996998;28;20036;-77
2021/08/30 02:23:41;;;;;;;10.88;6.20;;;13.90;99.90;;;;;;20995538;28;20400;-78
2021/08/30 02:33:44;;;;;;;16.70;6.35;;;13.90;99.90;;;;;;20994763;28;20021;-77
2021/08/30 02:43:46;;;;;;;12.65;6.43;;;13.80;99.90;;;;;;20976169;28;20037;-76
2021/08/30 02:53:48;;;;;;;13.50;6.72;;;13.80;99.90;;;;;;20993216;28;20037;-76
2021/08/30 03:03:51;;;;;;;10.20;6.50;;;13.80;99.90;;;;;;20991648;28;20043;-77
2021/08/30 03:13:54;;;;;;;11.32;6.68;;;13.80;99.90;;;;;;20991631;28;20024;-78
2021/08/30 03:23:57;;;;;;;12.55;5.90;;;13.80;99.90;;;;;;20990979;28;20032;-79
2021/08/30 03:34:00;;;;;;;18.05;7.15;;;13.80;99.90;;;;;;20986526;28;20040;-76
2021/08/30 03:44:01;;;;;;;16.25;6.97;;;13.70;99.90;;;;;;20907101;28;20094;-77
2021/08/30 03:54:03;;;;;;;12.07;7.47;;;13.60;99.90;;;;;;20980627;28;20028;-76
2021/08/30 04:04:04;;;;;;;14.55;7.22;;;13.50;99.90;;;;;;20989768;28;20025;-75
2021/08/30 04:14:05;;;;;;;;;;;13.50;99.90;;;;;;20970319;28;20064;-77
2021/08/30 04:24:06;;;;;;;13.98;6.80;;;13.40;99.90;;;;;;20966593;28;19913;-78
2021/08/30 04:34:07;;;;;;;11.60;7.27;;;13.30;99.90;;;;;;20988850;28;20174;-78
2021/08/30 04:44:09;;;;;;;12.40;6.20;;;13.30;99.90;;;;;;21002720;22;20118;-81
2021/08/30 04:54:10;;;;;;;11.75;5.40;;;13.30;99.90;;;;;;20923354;28;20115;-81
2021/08/30 05:04:10;;;;;;;9.00;5.30;;;13.20;99.90;;;;;;20949224;28;20407;-80
2021/08/30 05:14:11;;;;;;;8.67;5.60;;;13.20;99.90;;;;;;20928813;28;20079;-79
2021/08/30 05:24:12;;;;;;;12.10;6.07;;;13.10;99.90;;;;;;20942806;28;20029;-79
2021/08/30 05:34:13;;;;;;;19.10;6.50;;;13.00;99.90;;;;;;20944044;28;20038;-81
2021/08/30 05:44:14;;;;;;;9.70;6.30;;;13.10;99.90;;;;;;20926433;28;20127;-80
2021/08/30 05:54:15;;;;;;;10.60;6.67;;;13.30;99.90;;;;;;20945996;28;20025;-80
2021/08/30 06:04:15;;;;;;;14.70;6.50;;;13.60;99.90;;;;;;20946608;28;20036;-79
2021/08/30 06:14:16;;;;;;;9.40;5.70;;;13.80;99.90;;;;;;20945822;28;20033;-80
2021/08/30 06:24:17;;;;;;;11.13;6.07;;;14.00;99.90;;;;;;20947407;28;20114;-80
2021/08/30 06:34:18;;;;;;;11.83;7.17;;;14.20;99.90;;;;;;20945260;28;20112;-79
2021/08/30 06:44:19;;;;;;;12.97;7.23;;;14.30;99.90;;;;;;20945332;28;20033;-79
2021/08/30 06:54:20;;;;;;;9.53;6.27;;;14.30;99.90;;;;;;20944825;28;20581;-78
2021/08/30 07:04:20;;;;;;;12.57;7.10;;;14.20;99.90;;;;;;20933241;28;20036;-78
2021/08/30 07:14:21;;;;;;;9.47;5.80;;;14.30;99.90;;;;;;20924430;28;20048;-79
2021/08/30 07:24:22;;;;;;;8.97;6.50;;;14.60;99.90;;;;;;20941753;28;20479;-78
2021/08/30 07:34:24;;;;;;;8.60;5.67;;;14.50;99.90;;;;;;20939685;28;20033;-79
2021/08/30 07:44:26;;;;;;;10.18;6.47;;;14.40;99.90;;;;;;20919224;28;20529;-79
2021/08/30 07:54:26;;;;;;;13.63;7.30;;;14.20;99.90;;;;;;20902374;28;20033;-79
2021/08/30 08:04:27;;;;;;;15.73;7.80;;;14.30;99.90;;;;;;20919877;28;20047;-80
2021/08/30 08:14:28;;;;;;;9.47;5.77;;;14.30;99.90;;;;;;20945841;28;20029;-79
2021/08/30 08:24:29;;;;;;;15.43;5.77;;;14.60;99.90;;;;;;20953813;28;20033;-80
2021/08/30 08:34:30;;;;;;;8.33;5.33;;;14.50;99.90;;;;;;20954565;28;20051;-79
2021/08/30 08:44:31;;;;;;;9.73;4.70;;;14.70;99.90;;;;;;20952385;28;20037;-79
2021/08/30 08:54:32;;;;;;;6.77;4.10;;;14.90;99.90;;;;;;20947780;28;20037;-79
2021/08/30 09:04:34;;;;;;;6.23;4.20;;;14.90;99.90;;;;;;20962278;28;20047;-79
2021/08/30 09:14:35;;;;;;;7.82;5.05;;;15.10;99.90;;;;;;20952500;28;20041;-80
2021/08/30 09:24:37;;;;;;;7.73;4.37;;;15.30;99.90;;;;;;20948175;28;20063;-80
2021/08/30 09:34:49;;;;;;;6.55;4.63;;;15.50;99.90;;;;;;20949351;28;20033;-80
2021/08/30 09:44:50;;;;;;;6.55;4.30;;;15.80;99.90;;;;;;20948081;28;20036;-79
2021/08/30 09:54:51;;;;;;;6.22;3.60;;;15.70;99.90;;;;;;20947962;28;20120;-80
2021/08/30 10:04:52;;;;;;;9.73;4.03;;;16.50;99.90;;;;;;20927641;28;20067;-79
2021/08/30 10:14:54;;;;;;;9.23;4.53;;;16.60;99.90;;;;;;20926152;28;20378;-81
2021/08/30 10:24:55;;;;;;;10.13;4.32;;;17.20;99.90;;;;;;20942604;28;20025;-80
2021/08/30 10:34:55;;;;;;;4.33;3.20;;;17.20;99.90;;;;;;20943134;28;20078;-80
2021/08/30 10:45:06;;;;;;;4.20;2.70;;;17.30;99.90;;;;;;20926479;28;20029;-80
2021/08/30 10:55:20;;;;;;;7.43;2.58;;;16.90;99.90;;;;;;20936867;28;20037;-81
2021/08/30 11:05:28;;;;;;;3.50;2.47;;;16.70;99.90;;;;;;20940733;28;20040;-80
2021/08/30 11:15:33;;;;;;;5.22;1.88;;;16.50;99.90;;;;;;20918694;28;20029;-81
2021/08/30 11:25:35;;;;;;;2.63;1.70;;;16.70;99.90;;;;;;20913096;28;20055;-81
2021/08/30 11:35:35;;;;;;;;;;;17.10;99.90;;;;;;20917548;28;20033;-81
2021/08/30 11:45:36;;;;;;;2.77;1.70;;;18.80;99.90;;;;;;20929379;28;19919;-80
2021/08/30 11:55:38;;;;;;;2.20;1.27;;;17.80;99.90;;;;;;20934336;28;20298;-81
2021/08/30 12:05:43;;;;;;;3.25;1.52;;;19.40;99.90;;;;;;20929034;28;20025;-81
2021/08/30 12:15:46;;;;;;;2.92;1.52;;;19.20;99.90;;;;;;20929045;28;20039;-81
2021/08/30 12:25:48;;;;;;;2.25;1.90;;;17.70;99.90;;;;;;20930244;28;20025;-81
2021/08/30 12:35:57;;;;;;;4.65;1.75;;;17.40;99.90;;;;;;20909882;28;20041;-81
2021/08/30 12:45:58;;;;;;;3.33;2.30;;;17.30;99.90;;;;;;20929065;28;20029;-79
2021/08/30 12:55:59;;;;;;;4.20;2.90;;;17.40;99.90;;;;;;20930280;28;20121;-79
2021/08/30 13:06:00;;;;;;;7.90;3.20;;;17.20;99.90;;;;;;20947062;28;20471;-81
2021/08/30 13:16:01;;;;;;;4.07;2.70;;;17.40;99.90;;;;;;20948756;28;20033;-80
2021/08/30 13:26:02;;;;;;;5.80;3.87;;;18.50;99.90;;;;;;20951883;28;20530;-79
2021/08/30 13:36:03;;;;;;;12.67;4.63;;;17.40;99.90;;;;;;20931548;28;20037;-81
2021/08/30 13:46:03;;;;;;;8.30;4.40;;;17.30;99.90;;;;;;20928296;28;20096;-81
2021/08/30 13:56:04;;;;;;;4.47;3.30;;;17.20;99.90;;;;;;20928908;28;20087;-80
2021/08/30 14:06:05;;;;;;;11.53;3.40;;;17.30;99.90;;;;;;20932816;28;20089;-78
2021/08/30 14:16:06;;;;;;;5.70;3.83;;;16.80;99.90;;;;;;20930302;28;20461;-80
2021/08/30 14:26:07;;;;;;;7.47;4.40;;;16.40;99.90;;;;;;21012081;28;20041;-81
2021/08/30 14:36:08;;;;;;;8.63;4.63;;;16.60;99.90;;;;;;20948054;28;20036;-80
2021/08/30 14:46:09;;;;;;;5.28;3.72;;;17.30;99.90;;;;;;20929805;28;20101;-81
2021/08/30 14:56:10;;;;;;;12.20;5.77;;;17.90;99.90;;;;;;20940419;28;20021;-80
2021/08/30 15:06:11;;;;;;;7.33;3.87;;;18.00;99.90;;;;;;20935155;28;20042;-80
2021/08/30 15:16:12;;;;;;;8.03;3.63;;;17.90;99.90;;;;;;20944145;28;20998;-79
2021/08/30 15:26:13;;;;;;;5.20;4.00;;;17.60;99.90;;;;;;20923078;28;20726;-81
2021/08/30 15:36:14;;;;;;;6.63;4.40;;;17.60;99.90;;;;;;20919334;28;20114;-79
2021/08/30 15:46:16;;;;;;;5.80;3.72;;;17.60;99.90;;;;;;20908913;28;20043;-80
2021/08/30 15:56:17;;;;;;;6.13;3.60;;;17.90;99.90;;;;;;20899881;28;20044;-80
2021/08/30 16:06:19;;;;;;;5.57;3.50;;;18.10;99.90;;;;;;20910504;28;20395;-79
2021/08/30 16:16:20;;;;;;;5.38;3.58;;;18.10;99.90;;;;;;20937656;28;20033;-81
2021/08/30 16:26:21;;;;;;;9.40;4.07;;;17.60;99.90;;;;;;21010280;28;20037;-80
2021/08/30 16:36:24;;;;;;;4.50;3.67;;;17.30;99.90;;;;;;21014121;28;20275;-80
2021/08/30 16:46:25;;;;;;;5.57;3.58;;;17.10;99.90;;;;;;21006653;22;20052;-77
2021/08/30 16:56:26;;;;;;;11.93;3.57;;;16.80;99.90;;;;;;20900352;28;20041;-77
2021/08/30 17:06:27;;;;;;;3.80;2.90;;;16.70;99.90;;;;;;20899461;28;20071;-77
2021/08/30 17:16:28;;;;;;;4.13;3.30;;;16.70;99.90;;;;;;20898511;28;20074;-77
2021/08/30 17:26:29;;;;;;;5.70;3.10;;;16.60;99.90;;;;;;20897796;28;20025;-77
2021/08/30 17:36:30;;;;;;;;;;;16.60;99.90;;;;;;20880291;28;20628;-77
2021/08/30 17:46:31;;;;;;;5.13;2.40;;;16.30;99.90;;;;;;20898523;28;19936;-79
2021/08/30 17:56:33;;;;;;;3.65;2.40;;;16.10;99.90;;;;;;20901188;28;20666;-79
2021/08/30 18:06:34;;;;;;;3.55;2.53;;;15.90;99.90;;;;;;20978870;28;20113;-78
2021/08/30 18:16:35;;;;;;;3.77;2.37;;;15.90;99.90;;;;;;20914072;28;20061;-79
2021/08/30 18:26:36;;;;;;;4.23;3.07;;;15.90;99.90;;;;;;20898071;28;20036;-78
2021/08/30 18:36:36;;;;;;;4.37;2.60;;;15.60;99.90;;;;;;20897143;28;20029;-78
2021/08/30 18:46:37;;;;;;;3.47;2.37;;;15.60;99.90;;;;;;20860028;28;20037;-78
2021/08/30 18:56:38;;;;;;;4.20;3.23;;;15.80;99.90;;;;;;20894289;28;20045;-79
2021/08/30 19:06:39;;;;;;;5.33;3.20;;;15.60;99.90;;;;;;20892948;28;20037;-77
2021/08/30 19:16:40;;;;;;;3.83;2.93;;;15.60;99.90;;;;;;20877331;28;20071;-78
2021/08/30 19:26:41;;;;;;;4.60;2.97;;;15.50;99.90;;;;;;20884001;28;20427;-78
2021/08/30 19:36:42;;;;;;;5.33;2.73;;;15.30;99.90;;;;;;20912793;28;20036;-78
2021/08/30 19:46:43;;;;;;;4.30;2.80;;;15.20;99.90;;;;;;20934527;28;20044;-78
2021/08/30 19:56:43;;;;;;;5.13;3.17;;;15.30;99.90;;;;;;20896145;28;20033;-78
2021/08/30 20:06:45;;;;;;;9.63;3.47;;;15.00;99.90;;;;;;20898827;28;20065;-78
2021/08/30 20:16:46;;;;;;;7.70;3.70;;;15.00;99.90;;;;;;20935388;28;20033;-77
2021/08/30 20:26:47;;;;;;;7.03;3.90;;;14.80;99.90;;;;;;20952707;28;20411;-78
2021/08/30 20:36:47;;;;;;;9.47;3.77;;;14.80;99.90;;;;;;20939234;28;20116;-77
2021/08/30 20:46:48;;;;;;;14.50;4.90;;;14.80;99.90;;;;;;20947907;28;20045;-77
2021/08/30 20:56:49;;;;;;;8.33;4.63;;;14.60;99.90;;;;;;20898961;28;20028;-77
2021/08/30 21:06:50;;;;;;;8.97;4.63;;;14.60;99.90;;;;;;20903940;28;20029;-77
2021/08/30 21:16:52;;;;;;;11.68;4.97;;;14.50;99.90;;;;;;20935151;28;20060;-77
2021/08/30 21:26:53;;;;;;;9.67;5.80;;;14.50;99.90;;;;;;20933240;28;20055;-77
2021/08/30 21:36:54;;;;;;;13.13;5.63;;;14.50;99.90;;;;;;20933436;28;20647;-76
2021/08/30 21:46:55;;;;;;;14.53;6.70;;;14.50;99.90;;;;;;20942925;28;20036;-76
2021/08/30 21:56:56;;;;;;;7.90;5.30;;;14.40;99.90;;;;;;20955402;28;20103;-76
2021/08/30 22:06:58;;;;;;;11.47;6.50;;;14.50;99.90;;;;;;20931473;28;20037;-77
2021/08/30 22:17:01;;;;;;;9.02;5.90;;;14.40;99.90;;;;;;20906159;28;20039;-76
2021/08/30 22:27:03;;;;;;;9.03;5.93;;;14.50;99.90;;;;;;20914517;28;20083;-76
2021/08/30 22:37:04;;;;;;;8.33;6.20;;;14.60;99.90;;;;;;20912977;28;20025;-77
2021/08/30 22:47:05;;;;;;;10.97;5.63;;;14.60;99.90;;;;;;20912553;28;20037;-77
2021/08/30 22:57:06;;;;;;;44.50;8.90;;;14.60;99.90;;;;;;20912660;28;20029;-77
2021/08/30 23:07:07;;;;;;;18.60;8.23;;;14.60;99.90;;;;;;20911787;28;20383;-77
2021/08/30 23:17:08;;;;;;;13.50;8.80;;;14.60;99.90;;;;;;20912256;28;20509;-79
2021/08/30 23:27:09;;;;;;;14.85;9.05;;;14.50;99.90;;;;;;20909326;28;20692;-77
2021/08/30 23:37:10;;;;;;;16.93;11.77;;;14.50;99.90;;;;;;20943427;22;20037;-77
2021/08/30 23:47:11;;;;;;;24.20;11.10;;;14.60;99.90;;;;;;20963899;28;20064;-79
2021/08/30 23:57:12;;;;;;;16.23;10.27;;;14.60;99.90;;;;;;20945655;28;20040;-79
